Time;durP1;ratioP1;P1;durP2;ratioP2;P2;SDS_P1;SDS_P2;PMS_P1;PMS_P2;Temp;Humidity;BMP_temperature;BMP_pressure;BME280_temperature;BME280_humidity;BME280_pressure;Samples;Min_cycle;Max_cycle;Signal;HPM_P1;HPM_P2
2022/09/05 00:00:21;;;;;;;11.23;5.38;;;;;;;;;;4917960;29;20040;-77
2022/09/05 00:03:27;;;;;;;11.00;4.80;;;;;;;;;;4925780;29;20052;-78
2022/09/05 00:06:15;;;;;;;6.53;4.88;;;;;;;;;;4927912;29;20044;-78
2022/09/05 00:09:24;;;;;;;9.98;4.70;;;;;;;;;;4920873;29;20040;-77
2022/09/05 00:12:11;;;;;;;8.23;4.78;;;;;;;;;;4921271;29;20052;-77
2022/09/05 00:15:08;;;;;;;9.63;5.00;;;;;;;;;;4927700;29;20040;-77
2022/09/05 00:18:14;;;;;;;6.50;4.18;;;;;;;;;;4921280;29;20464;-77
2022/09/05 00:21:11;;;;;;;11.27;4.80;;;;;;;;;;4920912;29;20044;-77
2022/09/05 00:24:28;;;;;;;6.72;4.60;;;;;;;;;;4921028;29;20052;-77
2022/09/05 00:27:28;;;;;;;8.48;4.20;;;;;;;;;;4927536;29;20056;-77
2022/09/05 00:30:18;;;;;;;11.68;4.53;;;;;;;;;;4921774;29;20040;-78
2022/09/05 00:33:27;;;;;;;5.60;4.35;;;;;;;;;;4927092;29;20052;-77
2022/09/05 00:36:36;;;;;;;7.75;5.13;;;;;;;;;;4912822;29;20052;-77
2022/09/05 00:39:31;;;;;;;7.10;4.53;;;;;;;;;;4912709;29;20060;-77
2022/09/05 00:42:20;;;;;;;9.38;4.55;;;;;;;;;;4921291;29;20048;-77
2022/09/05 00:45:09;;;;;;;6.70;4.53;;;;;;;;;;4920706;29;20048;-77
2022/09/05 00:48:25;;;;;;;7.57;4.85;;;;;;;;;;4920776;29;20398;-78
2022/09/05 00:51:10;;;;;;;;;;;;;;;;;;4921294;29;20055;-77
2022/09/05 00:54:09;;;;;;;7.30;5.00;;;;;;;;;;4920641;29;19915;-77
2022/09/05 00:57:22;;;;;;;10.35;4.90;;;;;;;;;;4912100;29;20047;-76
2022/09/05 01:00:14;;;;;;;8.77;5.30;;;;;;;;;;4926397;29;20410;-76
2022/09/05 01:03:26;;;;;;;;;;;;;;;;;;4920826;29;20482;-76
2022/09/05 01:06:16;;;;;;;14.25;4.93;;;;;;;;;;4912302;29;19919;-76
2022/09/05 01:09:11;;;;;;;8.32;5.30;;;;;;;;;;4919981;29;20048;-77
2022/09/05 01:12:05;;;;;;;9.25;5.13;;;;;;;;;;4920114;29;20048;-77
2022/09/05 01:15:12;;;;;;;7.28;4.90;;;;;;;;;;4919490;29;20036;-76
2022/09/05 01:18:05;;;;;;;7.57;4.88;;;;;;;;;;4917761;29;20060;-76
2022/09/05 01:21:23;;;;;;;10.45;4.97;;;;;;;;;;4920065;29;20051;-79
2022/09/05 01:24:16;;;;;;;6.15;5.00;;;;;;;;;;4925341;29;20073;-77
2022/09/05 01:27:27;;;;;;;6.32;4.75;;;;;;;;;;4919942;29;20043;-78
2022/09/05 01:30:26;;;;;;;10.57;5.75;;;;;;;;;;4920057;29;20056;-78
2022/09/05 01:33:21;;;;;;;10.43;5.30;;;;;;;;;;4920404;29;20041;-78
2022/09/05 01:36:40;;;;;;;12.38;5.20;;;;;;;;;;4925929;29;20486;-78
2022/09/05 01:40:00;;;;;;;8.93;5.40;;;;;;;;;;4926056;29;20044;-78
2022/09/05 01:43:05;;;;;;;9.80;5.40;;;;;;;;;;4919976;29;20040;-77
2022/09/05 01:45:58;;;;;;;8.05;5.10;;;;;;;;;;4922484;29;20052;-77
2022/09/05 01:49:08;;;;;;;9.75;5.22;;;;;;;;;;4919556;29;20052;-77
2022/09/05 01:52:06;;;;;;;7.72;5.10;;;;;;;;;;4916093;29;20051;-77
2022/09/05 01:55:15;;;;;;;6.93;5.10;;;;;;;;;;4919735;29;20044;-78
2022/09/05 01:58:32;;;;;;;9.77;5.07;;;;;;;;;;4917352;29;20040;-79
2022/09/05 02:01:51;;;;;;;11.82;5.15;;;;;;;;;;4925808;29;20430;-78
2022/09/05 02:04:56;;;;;;;7.45;5.00;;;;;;;;;;4920578;29;20494;-78
2022/09/05 02:07:55;;;;;;;6.03;5.00;;;;;;;;;;4914666;29;20096;-78
2022/09/05 02:11:09;;;;;;;7.18;5.15;;;;;;;;;;4925530;29;20274;-79
2022/09/05 02:14:07;;;;;;;10.50;5.13;;;;;;;;;;4923440;29;20047;-78
2022/09/05 02:16:56;;;;;;;9.52;5.07;;;;;;;;;;4918758;29;20487;-78
2022/09/05 02:19:51;;;;;;;11.77;5.55;;;;;;;;;;4919339;29;20040;-79
2022/09/05 02:22:50;;;;;;;7.25;5.07;;;;;;;;;;4919230;29;20398;-78
2022/09/05 02:26:02;;;;;;;9.38;5.40;;;;;;;;;;4925726;29;20402;-77
2022/09/05 02:29:09;;;;;;;9.32;5.25;;;;;;;;;;4919376;29;20060;-78
2022/09/05 02:32:13;;;;;;;10.82;5.50;;;;;;;;;;4922514;29;20048;-78
2022/09/05 02:35:22;;;;;;;9.30;5.32;;;;;;;;;;4925942;29;20056;-77
2022/09/05 02:38:22;;;;;;;9.70;5.38;;;;;;;;;;4919272;29;20040;-78
2022/09/05 02:41:38;;;;;;;10.55;5.35;;;;;;;;;;4925425;29;20048;-78
2022/09/05 02:44:36;;;;;;;7.05;4.90;;;;;;;;;;4919309;29;20048;-78
2022/09/05 02:47:30;;;;;;;10.57;5.53;;;;;;;;;;4925577;29;20051;-77
2022/09/05 02:50:21;;;;;;;;;;;;;;;;;;4919434;29;20490;-78
2022/09/05 02:53:10;;;;;;;8.68;5.50;;;;;;;;;;4918998;29;19919;-78
2022/09/05 02:56:14;;;;;;;8.27;5.53;;;;;;;;;;4918871;29;20048;-77
2022/09/05 02:59:20;;;;;;;15.45;5.38;;;;;;;;;;4918467;29;20060;-77
2022/09/05 03:02:34;;;;;;;8.10;5.10;;;;;;;;;;4918317;29;20414;-78
2022/09/05 03:05:29;;;;;;;10.32;5.30;;;;;;;;;;4918778;29;20052;-78
2022/09/05 03:08:57;;;;;;;10.27;5.43;;;;;;;;;;4918358;29;20044;-78
2022/09/05 03:11:57;;;;;;;9.75;5.80;;;;;;;;;;4917978;29;20048;-78
2022/09/05 03:15:19;;;;;;;7.60;5.32;;;;;;;;;;4913327;29;20048;-78
2022/09/05 03:18:06;;;;;;;7.35;5.53;;;;;;;;;;4922287;29;20395;-78
2022/09/05 03:21:01;;;;;;;7.90;5.40;;;;;;;;;;4918211;29;20044;-78
2022/09/05 03:24:25;;;;;;;13.13;6.22;;;;;;;;;;4919764;29;20044;-78
2022/09/05 03:27:29;;;;;;;9.55;5.75;;;;;;;;;;4884535;29;20052;-78
2022/09/05 03:30:35;;;;;;;7.88;5.68;;;;;;;;;;4884416;29;20064;-78
2022/09/05 03:33:33;;;;;;;7.05;5.45;;;;;;;;;;4917923;29;20406;-78
2022/09/05 03:36:56;;;;;;;9.82;6.03;;;;;;;;;;4923867;29;20052;-77
2022/09/05 03:40:10;;;;;;;11.88;6.07;;;;;;;;;;4917231;29;20398;-78
2022/09/05 03:43:04;;;;;;;14.38;6.30;;;;;;;;;;4925075;29;20040;-78
2022/09/05 03:46:09;;;;;;;10.55;6.15;;;;;;;;;;4927886;29;20048;-77
2022/09/05 03:49:06;;;;;;;11.85;5.75;;;;;;;;;;4924840;29;20494;-78
2022/09/05 03:52:37;;;;;;;19.77;6.90;;;;;;;;;;4921436;29;20048;-78
2022/09/05 03:55:52;;;;;;;11.75;6.22;;;;;;;;;;4899949;29;20052;-78
2022/09/05 03:59:02;;;;;;;14.32;6.55;;;;;;;;;;4921367;29;20052;-77
2022/09/05 04:01:53;;;;;;;11.63;5.68;;;;;;;;;;4917044;29;20486;-77
2022/09/05 04:04:54;;;;;;;13.05;6.75;;;;;;;;;;4921374;29;20044;-77
2022/09/05 04:07:43;;;;;;;12.50;6.13;;;;;;;;;;4924841;29;20358;-77
2022/09/05 04:10:54;;;;;;;17.38;6.72;;;;;;;;;;4913186;29;20065;-76
2022/09/05 04:13:48;;;;;;;16.58;6.28;;;;;;;;;;4908424;29;20044;-77
2022/09/05 04:17:05;;;;;;;18.10;6.88;;;;;;;;;;4920367;29;20402;-77
2022/09/05 04:20:20;;;;;;;10.80;6.80;;;;;;;;;;4922727;29;20060;-77
2022/09/05 04:23:23;;;;;;;11.40;6.80;;;;;;;;;;4918967;29;20052;-77
2022/09/05 04:26:25;;;;;;;9.05;6.47;;;;;;;;;;4927463;29;20048;-77
2022/09/05 04:29:19;;;;;;;9.40;6.00;;;;;;;;;;4919508;29;20060;-77
2022/09/05 04:32:11;;;;;;;10.40;6.68;;;;;;;;;;4920531;29;20056;-77
2022/09/05 04:35:14;;;;;;;9.85;6.63;;;;;;;;;;4920535;29;20040;-77
2022/09/05 04:38:32;;;;;;;11.68;6.55;;;;;;;;;;4920033;29;20048;-77
2022/09/05 04:41:22;;;;;;;11.95;6.80;;;;;;;;;;4920452;29;20056;-78
2022/09/05 04:44:14;;;;;;;12.10;6.75;;;;;;;;;;4926527;29;20040;-78
2022/09/05 04:47:06;;;;;;;12.60;7.22;;;;;;;;;;4919911;29;20406;-78
2022/09/05 04:50:06;;;;;;;9.50;6.93;;;;;;;;;;4925482;29;20048;-79
2022/09/05 04:53:14;;;;;;;14.75;6.50;;;;;;;;;;4923372;29;20040;-79
2022/09/05 04:56:13;;;;;;;11.63;6.78;;;;;;;;;;4923903;29;20048;-78
2022/09/05 04:59:08;;;;;;;11.13;7.07;;;;;;;;;;4920334;29;20060;-76
2022/09/05 05:01:58;;;;;;;12.48;6.93;;;;;;;;;;4926434;29;20048;-77
2022/09/05 05:04:44;;;;;;;12.95;7.18;;;;;;;;;;4920470;29;20052;-78
2022/09/05 05:07:50;;;;;;;11.68;7.03;;;;;;;;;;4923688;29;20052;-78
2022/09/05 05:10:42;;;;;;;9.80;7.32;;;;;;;;;;4918744;29;20048;-79
2022/09/05 05:13:35;;;;;;;10.77;7.22;;;;;;;;;;4919818;29;20056;-75
2022/09/05 05:16:45;;;;;;;12.80;7.47;;;;;;;;;;4919640;29;20406;-78
2022/09/05 05:19:37;;;;;;;11.70;7.28;;;;;;;;;;4919395;29;20048;-76
2022/09/05 05:22:22;;;;;;;11.60;6.75;;;;;;;;;;4918520;29;20060;-76
2022/09/05 05:25:11;;;;;;;11.80;6.38;;;;;;;;;;4918820;29;20410;-76
2022/09/05 05:28:06;;;;;;;15.50;5.78;;;;;;;;;;4925282;29;20044;-76
2022/09/05 05:30:53;;;;;;;10.20;5.63;;;;;;;;;;4919714;29;20494;-76
2022/09/05 05:33:39;;;;;;;7.75;5.57;;;;;;;;;;4919211;29;20067;-76
2022/09/05 05:36:31;;;;;;;11.18;7.38;;;;;;;;;;4919459;29;20052;-76
2022/09/05 05:39:25;;;;;;;10.23;6.38;;;;;;;;;;4925699;29;20052;-77
2022/09/05 05:42:19;;;;;;;8.70;6.45;;;;;;;;;;4919597;29;20048;-76
2022/09/05 05:45:31;;;;;;;10.02;6.60;;;;;;;;;;4925330;29;20044;-76
2022/09/05 05:48:16;;;;;;;9.23;6.30;;;;;;;;;;4925463;29;20056;-76
2022/09/05 05:51:10;;;;;;;9.25;5.20;;;;;;;;;;4924518;29;20040;-76
2022/09/05 05:54:28;;;;;;;11.30;5.78;;;;;;;;;;4925029;29;20052;-77
2022/09/05 05:57:21;;;;;;;10.55;6.00;;;;;;;;;;4918627;29;20498;-77
2022/09/05 06:00:34;;;;;;;11.88;6.95;;;;;;;;;;4918457;29;20409;-77
2022/09/05 06:03:38;;;;;;;9.77;6.68;;;;;;;;;;4924996;29;20044;-76
2022/09/05 06:06:30;;;;;;;11.60;6.35;;;;;;;;;;4918919;29;20044;-77
2022/09/05 06:10:00;;;;;;;8.55;6.93;;;;;;;;;;4910938;29;20048;-77
2022/09/05 06:12:48;;;;;;;7.85;5.90;;;;;;;;;;4925119;29;20501;-78
2022/09/05 06:15:59;;;;;;;9.35;6.13;;;;;;;;;;4925069;29;20407;-76
2022/09/05 06:19:29;;;;;;;9.57;6.63;;;;;;;;;;4914600;29;20044;-76
2022/09/05 06:22:39;;;;;;;8.23;6.32;;;;;;;;;;4907757;29;20489;-76
2022/09/05 06:26:18;;;;;;;9.82;6.18;;;;;;;;;;4925637;29;20048;-76
2022/09/05 06:29:54;;;;;;;16.98;7.30;;;;;;;;;;4879716;29;20052;-77
2022/09/05 06:32:59;;;;;;;11.43;7.88;;;;;;;;;;4925042;29;20048;-76
2022/09/05 06:36:10;;;;;;;9.40;7.00;;;;;;;;;;4919162;29;20051;-78
2022/09/05 06:39:08;;;;;;;16.10;9.57;;;;;;;;;;4915921;29;20036;-77
2022/09/05 06:42:21;;;;;;;12.60;7.40;;;;;;;;;;4924839;29;20051;-77
2022/09/05 06:45:16;;;;;;;14.20;8.90;;;;;;;;;;4918307;29;20036;-77
2022/09/05 06:48:19;;;;;;;14.05;9.88;;;;;;;;;;4925261;29;20047;-78
2022/09/05 06:51:43;;;;;;;14.13;11.45;;;;;;;;;;4918072;29;20494;-77
2022/09/05 06:54:53;;;;;;;14.65;10.07;;;;;;;;;;4924247;29;20052;-77
2022/09/05 06:58:09;;;;;;;16.88;10.93;;;;;;;;;;4917843;29;20052;-75
2022/09/05 07:01:00;;;;;;;15.15;11.13;;;;;;;;;;4917306;29;20048;-75
2022/09/05 07:04:11;;;;;;;12.25;9.50;;;;;;;;;;4923381;29;20060;-76
2022/09/05 07:07:12;;;;;;;16.33;10.15;;;;;;;;;;4914280;29;20044;-76
2022/09/05 07:10:19;;;;;;;19.50;11.98;;;;;;;;;;4917771;29;20048;-76
2022/09/05 07:13:12;;;;;;;16.05;11.73;;;;;;;;;;4916282;29;20385;-76
2022/09/05 07:16:09;;;;;;;18.73;12.18;;;;;;;;;;4916792;29;20056;-76
2022/09/05 07:19:11;;;;;;;15.82;13.18;;;;;;;;;;4923859;29;20052;-76
2022/09/05 07:22:17;;;;;;;14.55;11.52;;;;;;;;;;4917942;29;20036;-76
2022/09/05 07:25:09;;;;;;;16.98;12.45;;;;;;;;;;4924220;29;20081;-77
2022/09/05 07:27:59;;;;;;;17.15;12.57;;;;;;;;;;4924785;29;20044;-77
2022/09/05 07:30:49;;;;;;;13.82;11.82;;;;;;;;;;4924133;29;20044;-77
2022/09/05 07:33:38;;;;;;;16.98;12.38;;;;;;;;;;4923774;29;20043;-77
2022/09/05 07:36:31;;;;;;;18.98;13.30;;;;;;;;;;4917333;29;20044;-77
2022/09/05 07:39:19;;;;;;;19.48;13.35;;;;;;;;;;4917546;29;20040;-76
2022/09/05 07:42:15;;;;;;;15.18;13.57;;;;;;;;;;4917407;29;20051;-76
2022/09/05 07:45:09;;;;;;;17.08;12.93;;;;;;;;;;4917554;29;20486;-77
2022/09/05 07:48:05;;;;;;;17.42;13.77;;;;;;;;;;4917373;29;20494;-76
2022/09/05 07:50:57;;;;;;;17.23;13.68;;;;;;;;;;4917444;29;20490;-77
2022/09/05 07:53:43;;;;;;;19.33;14.10;;;;;;;;;;4917523;29;20391;-76
2022/09/05 07:57:05;;;;;;;16.70;14.25;;;;;;;;;;4923432;29;20044;-77
2022/09/05 07:59:54;;;;;;;21.38;15.48;;;;;;;;;;4917486;29;20052;-76
2022/09/05 08:02:45;;;;;;;18.65;14.02;;;;;;;;;;4924040;29;20044;-75
2022/09/05 08:05:38;;;;;;;17.52;14.23;;;;;;;;;;4917777;29;20048;-75
2022/09/05 08:08:31;;;;;;;18.30;14.47;;;;;;;;;;4916919;29;20414;-76
2022/09/05 08:11:21;;;;;;;21.95;16.30;;;;;;;;;;4923716;29;20044;-77
2022/09/05 08:14:44;;;;;;;16.40;14.57;;;;;;;;;;4917102;29;20056;-77
2022/09/05 08:17:33;;;;;;;19.52;14.05;;;;;;;;;;4923822;29;20052;-78
2022/09/05 08:20:24;;;;;;;20.02;15.32;;;;;;;;;;4917485;29;20044;-77
2022/09/05 08:23:16;;;;;;;19.20;16.25;;;;;;;;;;4924113;29;20052;-77
2022/09/05 08:26:15;;;;;;;17.23;15.15;;;;;;;;;;4921694;29;20040;-77
2022/09/05 08:29:15;;;;;;;17.58;15.43;;;;;;;;;;4927225;29;20483;-78
2022/09/05 08:32:10;;;;;;;18.05;14.70;;;;;;;;;;4920841;29;20052;-78
2022/09/05 08:35:05;;;;;;;23.33;15.30;;;;;;;;;;4927515;29;20047;-79
2022/09/05 08:37:53;;;;;;;20.27;14.60;;;;;;;;;;4920193;29;20052;-78
2022/09/05 08:41:07;;;;;;;20.20;14.95;;;;;;;;;;4926910;29;20056;-78
2022/09/05 08:44:17;;;;;;;22.98;14.93;;;;;;;;;;4927049;29;20048;-78
2022/09/05 08:47:27;;;;;;;19.85;14.35;;;;;;;;;;4926488;29;20044;-78
2022/09/05 08:50:27;;;;;;;15.82;13.88;;;;;;;;;;4926597;29;20052;-78
2022/09/05 08:53:55;;;;;;;19.58;14.75;;;;;;;;;;4920160;29;20052;-78
2022/09/05 08:56:50;;;;;;;17.73;14.52;;;;;;;;;;4926586;29;20044;-78
2022/09/05 09:00:01;;;;;;;16.65;12.68;;;;;;;;;;4920369;29;20048;-77
2022/09/05 09:03:24;;;;;;;18.05;13.75;;;;;;;;;;4926089;29;20048;-76
2022/09/05 09:06:19;;;;;;;17.10;13.30;;;;;;;;;;4919802;29;20487;-77
2022/09/05 09:09:13;;;;;;;18.27;12.82;;;;;;;;;;4919498;29;20043;-77
2022/09/05 09:12:30;;;;;;;16.08;13.25;;;;;;;;;;4926274;29;20502;-78
2022/09/05 09:15:40;;;;;;;15.82;11.82;;;;;;;;;;4919700;29;20044;-77
2022/09/05 09:18:40;;;;;;;17.70;12.38;;;;;;;;;;4919461;29;20048;-77
2022/09/05 09:22:03;;;;;;;13.50;11.82;;;;;;;;;;4920862;29;20040;-78
2022/09/05 09:24:59;;;;;;;13.00;10.48;;;;;;;;;;4920613;29;20052;-77
2022/09/05 09:28:16;;;;;;;16.50;11.65;;;;;;;;;;4920963;29;20479;-78
2022/09/05 09:31:36;;;;;;;12.18;8.95;;;;;;;;;;4926248;29;20044;-78
2022/09/05 09:34:24;;;;;;;12.48;10.38;;;;;;;;;;4925755;29;20048;-78
2022/09/05 09:37:36;;;;;;;13.32;11.20;;;;;;;;;;4925729;29;20044;-79
2022/09/05 09:40:29;;;;;;;12.25;9.63;;;;;;;;;;4919505;29;20044;-78
2022/09/05 09:43:26;;;;;;;10.43;8.73;;;;;;;;;;4925857;29;20044;-77
2022/09/05 09:46:33;;;;;;;11.48;9.80;;;;;;;;;;4925123;29;20040;-77
2022/09/05 09:49:47;;;;;;;11.38;8.35;;;;;;;;;;4918984;29;20047;-76
2022/09/05 09:52:52;;;;;;;8.75;7.50;;;;;;;;;;4912914;29;20048;-76
2022/09/05 09:55:50;;;;;;;9.95;8.05;;;;;;;;;;4924987;29;20048;-76
2022/09/05 09:58:54;;;;;;;10.32;8.45;;;;;;;;;;4918604;29;20048;-77
2022/09/05 10:01:53;;;;;;;10.05;8.02;;;;;;;;;;4920306;29;20043;-77
2022/09/05 10:05:15;;;;;;;7.95;7.13;;;;;;;;;;4925226;29;20458;-77
2022/09/05 10:08:20;;;;;;;8.57;7.57;;;;;;;;;;4918926;29;20044;-77
2022/09/05 10:11:19;;;;;;;10.25;7.47;;;;;;;;;;4918762;29;20044;-77
2022/09/05 10:14:18;;;;;;;11.35;7.70;;;;;;;;;;4918402;29;20044;-77
2022/09/05 10:17:16;;;;;;;9.15;7.60;;;;;;;;;;4924779;29;20057;-76
2022/09/05 10:20:14;;;;;;;6.18;4.53;;;;;;;;;;4925020;29;20044;-77
2022/09/05 10:23:29;;;;;;;5.93;4.90;;;;;;;;;;4925206;29;20052;-77
2022/09/05 10:26:52;;;;;;;7.25;5.45;;;;;;;;;;4910672;29;20055;-77
2022/09/05 10:30:09;;;;;;;5.68;4.70;;;;;;;;;;4924692;29;20052;-76
2022/09/05 10:33:09;;;;;;;6.65;4.60;;;;;;;;;;4922202;29;20410;-77
2022/09/05 10:36:18;;;;;;;6.70;5.00;;;;;;;;;;4918235;29;20044;-77
2022/09/05 10:39:37;;;;;;;5.75;4.78;;;;;;;;;;4924293;29;20040;-77
2022/09/05 10:42:42;;;;;;;6.28;4.70;;;;;;;;;;4911473;29;20490;-76
2022/09/05 10:45:51;;;;;;;6.60;4.43;;;;;;;;;;4925114;29;20040;-77
2022/09/05 10:48:53;;;;;;;5.85;4.43;;;;;;;;;;4924704;29;20048;-77
2022/09/05 10:52:08;;;;;;;7.25;3.97;;;;;;;;;;4918585;29;20044;-77
2022/09/05 10:55:16;;;;;;;4.70;3.88;;;;;;;;;;4921823;29;20048;-77
2022/09/05 10:58:04;;;;;;;4.28;3.75;;;;;;;;;;4918417;29;20048;-76
2022/09/05 11:01:05;;;;;;;4.10;3.70;;;;;;;;;;4927569;29;20131;-79
2022/09/05 11:04:28;;;;;;;6.35;3.92;;;;;;;;;;4925208;29;20055;-77
2022/09/05 11:07:18;;;;;;;6.00;3.60;;;;;;;;;;4922948;29;20060;-77
2022/09/05 11:10:26;;;;;;;6.32;3.67;;;;;;;;;;4917965;29;20526;-76
2022/09/05 11:13:48;;;;;;;7.50;3.72;;;;;;;;;;4924514;29;20056;-77
2022/09/05 11:16:48;;;;;;;3.53;2.97;;;;;;;;;;4918309;29;20426;-77
2022/09/05 11:19:40;;;;;;;3.90;3.50;;;;;;;;;;4918221;29;20391;-76
2022/09/05 11:22:35;;;;;;;4.18;3.50;;;;;;;;;;4917952;29;20044;-76
2022/09/05 11:25:23;;;;;;;3.90;3.08;;;;;;;;;;4917995;29;20482;-76
2022/09/05 11:28:50;;;;;;;4.88;3.10;;;;;;;;;;4924051;29;20048;-75
2022/09/05 11:31:48;;;;;;;6.57;3.55;;;;;;;;;;4918474;29;20052;-77
2022/09/05 11:34:57;;;;;;;3.75;3.00;;;;;;;;;;4924578;29;20518;-77
2022/09/05 11:37:49;;;;;;;3.80;3.17;;;;;;;;;;4913394;29;20049;-77
2022/09/05 11:41:08;;;;;;;4.35;3.40;;;;;;;;;;4924106;29;20056;-75
2022/09/05 11:44:40;;;;;;;4.03;2.83;;;;;;;;;;4920225;29;20052;-76
2022/09/05 11:47:53;;;;;;;3.72;3.05;;;;;;;;;;4895060;29;20048;-75
2022/09/05 11:51:11;;;;;;;4.18;3.08;;;;;;;;;;4923470;29;20059;-75
2022/09/05 11:54:14;;;;;;;3.78;2.97;;;;;;;;;;4914464;29;20048;-75
2022/09/05 11:57:25;;;;;;;5.63;3.33;;;;;;;;;;4924667;29;20052;-76
2022/09/05 12:00:29;;;;;;;3.00;2.42;;;;;;;;;;4925783;29;20048;-76
2022/09/05 12:03:48;;;;;;;3.75;3.03;;;;;;;;;;4924702;29;20052;-76
2022/09/05 12:06:55;;;;;;;4.57;3.20;;;;;;;;;;4925401;29;20052;-75
2022/09/05 12:10:08;;;;;;;3.63;3.00;;;;;;;;;;4906138;29;20048;-76
2022/09/05 12:13:23;;;;;;;5.13;3.20;;;;;;;;;;4898995;29;20398;-76
2022/09/05 12:16:24;;;;;;;4.25;3.28;;;;;;;;;;4913650;29;20048;-76
2022/09/05 12:19:37;;;;;;;2.92;2.63;;;;;;;;;;4907438;29;20049;-76
2022/09/05 12:22:28;;;;;;;4.13;2.65;;;;;;;;;;4914512;29;20053;-76
2022/09/05 12:25:36;;;;;;;3.22;2.88;;;;;;;;;;4913710;29;20048;-76
2022/09/05 12:28:45;;;;;;;4.07;2.95;;;;;;;;;;4906949;29;20056;-76
2022/09/05 12:31:37;;;;;;;3.38;2.60;;;;;;;;;;4905892;29;20049;-76
2022/09/05 12:34:51;;;;;;;3.22;2.80;;;;;;;;;;4913349;29;20049;-76
2022/09/05 12:37:57;;;;;;;3.83;2.80;;;;;;;;;;4906660;29;20045;-76
2022/09/05 12:41:10;;;;;;;3.75;2.67;;;;;;;;;;4913374;29;20052;-76
2022/09/05 12:44:07;;;;;;;4.38;2.78;;;;;;;;;;4909113;29;20052;-76
2022/09/05 12:46:58;;;;;;;5.75;2.90;;;;;;;;;;4905795;29;20048;-75
2022/09/05 12:50:07;;;;;;;3.42;2.80;;;;;;;;;;4911407;29;20052;-75
2022/09/05 12:53:01;;;;;;;3.53;2.60;;;;;;;;;;4910146;29;20045;-77
2022/09/05 12:56:06;;;;;;;3.07;2.77;;;;;;;;;;4902626;29;20048;-75
2022/09/05 12:58:53;;;;;;;3.92;2.50;;;;;;;;;;4907182;29;20044;-76
2022/09/05 13:01:42;;;;;;;3.55;2.72;;;;;;;;;;4900944;29;20040;-75
2022/09/05 13:04:53;;;;;;;3.95;2.85;;;;;;;;;;4907743;29;20479;-75
2022/09/05 13:07:51;;;;;;;3.75;2.85;;;;;;;;;;4908476;29;20056;-75
2022/09/05 13:10:40;;;;;;;3.90;2.58;;;;;;;;;;4924887;29;20040;-76
2022/09/05 13:13:39;;;;;;;4.75;2.55;;;;;;;;;;4919873;29;20426;-74
2022/09/05 13:16:28;;;;;;;3.50;2.88;;;;;;;;;;4925957;29;20052;-73
2022/09/05 13:19:44;;;;;;;3.85;2.60;;;;;;;;;;4918819;29;20048;-75
2022/09/05 13:22:30;;;;;;;4.18;2.72;;;;;;;;;;4925144;29;20040;-74
2022/09/05 13:25:25;;;;;;;3.92;2.63;;;;;;;;;;4918746;29;20048;-73
2022/09/05 13:28:13;;;;;;;3.75;2.60;;;;;;;;;;4919240;29;20044;-74
2022/09/05 13:31:07;;;;;;;3.60;2.70;;;;;;;;;;4925480;29;20048;-75
2022/09/05 13:33:53;;;;;;;4.55;3.15;;;;;;;;;;4925622;29;20044;-74
2022/09/05 13:37:15;;;;;;;3.15;2.70;;;;;;;;;;4914173;29;20052;-75
2022/09/05 13:40:24;;;;;;;3.92;2.85;;;;;;;;;;4919063;29;20052;-75
2022/09/05 13:43:13;;;;;;;4.43;2.83;;;;;;;;;;4919156;29;20044;-76
2022/09/05 13:46:20;;;;;;;3.50;2.92;;;;;;;;;;4919369;29;20052;-75
2022/09/05 13:49:15;;;;;;;3.45;2.80;;;;;;;;;;4925399;29;20040;-75
2022/09/05 13:52:10;;;;;;;3.08;2.72;;;;;;;;;;4925330;29;20494;-76
2022/09/05 13:55:31;;;;;;;4.68;3.03;;;;;;;;;;4924677;29;20056;-76
2022/09/05 13:58:31;;;;;;;5.22;2.70;;;;;;;;;;4924906;29;20044;-74
2022/09/05 14:01:42;;;;;;;3.40;2.78;;;;;;;;;;4918795;29;20490;-74
2022/09/05 14:04:52;;;;;;;3.75;2.70;;;;;;;;;;4918457;29;20056;-75
2022/09/05 14:08:16;;;;;;;3.80;3.00;;;;;;;;;;4922309;29;20052;-74
2022/09/05 14:11:20;;;;;;;3.53;2.90;;;;;;;;;;4916543;29;20044;-74
2022/09/05 14:14:08;;;;;;;2.78;2.50;;;;;;;;;;4924705;29;20482;-75
2022/09/05 14:17:08;;;;;;;2.78;2.45;;;;;;;;;;4924901;29;20044;-75
2022/09/05 14:23:08;;;;;;;3.28;2.55;;;;;;;;;;4923974;29;20056;-75
2022/09/05 14:25:58;;;;;;;3.33;2.95;;;;;;;;;;4924819;29;20056;-75
2022/09/05 14:28:57;;;;;;;7.50;2.78;;;;;;;;;;4897534;29;20494;-75
2022/09/05 14:32:05;;;;;;;5.25;3.10;;;;;;;;;;4918651;29;20052;-74
2022/09/05 14:35:10;;;;;;;4.22;2.67;;;;;;;;;;4920861;29;20048;-75
2022/09/05 14:38:19;;;;;;;3.95;2.67;;;;;;;;;;4921848;29;20052;-75
2022/09/05 14:41:41;;;;;;;3.17;2.53;;;;;;;;;;4924290;29;20478;-75
2022/09/05 14:44:47;;;;;;;3.25;2.75;;;;;;;;;;4924677;29;20044;-75
2022/09/05 14:47:48;;;;;;;3.78;3.05;;;;;;;;;;4924812;29;20060;-76
2022/09/05 14:50:48;;;;;;;3.53;2.92;;;;;;;;;;4917880;29;20055;-76
2022/09/05 14:53:52;;;;;;;3.15;2.70;;;;;;;;;;4924342;29;20491;-78
2022/09/05 14:57:01;;;;;;;4.35;2.88;;;;;;;;;;4919169;29;20402;-75
2022/09/05 14:59:50;;;;;;;6.15;2.60;;;;;;;;;;4905494;29;20055;-75
2022/09/05 15:02:42;;;;;;;6.93;3.15;;;;;;;;;;4924205;29;20040;-75
2022/09/05 15:05:26;;;;;;;6.57;2.90;;;;;;;;;;4924491;29;20483;-74
2022/09/05 15:08:21;;;;;;;3.15;2.67;;;;;;;;;;4917378;29;20048;-73
2022/09/05 15:11:10;;;;;;;3.55;2.80;;;;;;;;;;4917375;29;20056;-74
2022/09/05 15:14:02;;;;;;;5.22;2.92;;;;;;;;;;4922816;29;20398;-74
2022/09/05 15:16:58;;;;;;;3.78;2.78;;;;;;;;;;4923775;29;20048;-74
2022/09/05 15:19:52;;;;;;;3.97;2.90;;;;;;;;;;4923500;29;20044;-74
2022/09/05 15:22:43;;;;;;;3.20;2.75;;;;;;;;;;4923744;29;20051;-74
2022/09/05 15:25:44;;;;;;;4.35;2.67;;;;;;;;;;4917319;29;20048;-76
2022/09/05 15:28:40;;;;;;;3.95;2.80;;;;;;;;;;4917567;29;20048;-78
2022/09/05 15:31:26;;;;;;;3.97;2.83;;;;;;;;;;4924142;29;20414;-76
2022/09/05 15:34:20;;;;;;;4.90;3.53;;;;;;;;;;4922711;29;20048;-78
2022/09/05 15:37:27;;;;;;;;;;;;;;;;;;4924038;29;20048;-75
2022/09/05 15:40:15;;;;;;;4.00;3.10;;;;;;;;;;4923174;29;19919;-74
2022/09/05 15:43:01;;;;;;;3.53;2.75;;;;;;;;;;4923126;29;20056;-74
2022/09/05 15:45:49;;;;;;;4.85;2.90;;;;;;;;;;4923222;29;20052;-76
2022/09/05 15:48:39;;;;;;;6.65;2.95;;;;;;;;;;4922377;29;20402;-75
2022/09/05 15:51:54;;;;;;;2.90;2.42;;;;;;;;;;4917121;29;20044;-76
2022/09/05 15:55:10;;;;;;;3.08;2.67;;;;;;;;;;4909238;29;20052;-75
2022/09/05 15:58:01;;;;;;;4.50;2.70;;;;;;;;;;4923709;29;20052;-76
2022/09/05 16:00:52;;;;;;;4.13;2.78;;;;;;;;;;4923115;29;20040;-75
2022/09/05 16:03:40;;;;;;;3.85;2.90;;;;;;;;;;4923050;29;20060;-74
2022/09/05 16:06:31;;;;;;;3.75;2.85;;;;;;;;;;4922846;29;20059;-75
2022/09/05 16:09:40;;;;;;;3.42;2.80;;;;;;;;;;4923595;29;20048;-76
2022/09/05 16:12:34;;;;;;;4.88;2.80;;;;;;;;;;4923259;29;20055;-75
2022/09/05 16:15:21;;;;;;;4.45;2.90;;;;;;;;;;4922834;29;20052;-74
2022/09/05 16:18:38;;;;;;;4.00;2.90;;;;;;;;;;4923005;29;20041;-76
2022/09/05 16:21:26;;;;;;;3.30;2.83;;;;;;;;;;4922753;29;20045;-75
2022/09/05 16:24:22;;;;;;;5.07;3.30;;;;;;;;;;4922447;29;20055;-74
2022/09/05 16:27:11;;;;;;;4.63;3.22;;;;;;;;;;4922418;29;20044;-74
2022/09/05 16:29:56;;;;;;;3.67;2.92;;;;;;;;;;4923326;29;20056;-74
2022/09/05 16:32:42;;;;;;;4.25;3.17;;;;;;;;;;4922933;29;20040;-74
2022/09/05 16:35:32;;;;;;;3.35;3.05;;;;;;;;;;4923215;29;20052;-74
2022/09/05 16:38:47;;;;;;;5.18;3.08;;;;;;;;;;4902409;29;20056;-74
2022/09/05 16:41:55;;;;;;;4.93;2.95;;;;;;;;;;4923036;29;20044;-75
2022/09/05 16:44:57;;;;;;;5.80;3.38;;;;;;;;;;4924226;29;20060;-75
2022/09/05 16:48:05;;;;;;;5.47;3.65;;;;;;;;;;4907928;29;20398;-75
2022/09/05 16:51:08;;;;;;;4.10;2.95;;;;;;;;;;4922821;29;20056;-75
2022/09/05 16:53:57;;;;;;;3.80;3.10;;;;;;;;;;4916561;29;20052;-74
2022/09/05 16:56:49;;;;;;;4.53;2.92;;;;;;;;;;4919459;29;20052;-75
2022/09/05 16:59:39;;;;;;;6.45;3.58;;;;;;;;;;4926880;29;20052;-74
2022/09/05 17:02:42;;;;;;;7.82;3.30;;;;;;;;;;4919545;29;20052;-75
2022/09/05 17:05:34;;;;;;;4.47;3.33;;;;;;;;;;4925913;29;20048;-74
2022/09/05 17:08:26;;;;;;;5.93;3.40;;;;;;;;;;4933718;29;20051;-75
2022/09/05 17:11:14;;;;;;;6.20;3.42;;;;;;;;;;4944709;29;20055;-75
2022/09/05 17:14:14;;;;;;;6.45;3.70;;;;;;;;;;4938648;29;20047;-75
2022/09/05 17:17:03;;;;;;;6.85;3.72;;;;;;;;;;4944799;29;20048;-74
2022/09/05 17:19:52;;;;;;;6.60;4.25;;;;;;;;;;4944443;29;20052;-75
2022/09/05 17:23:00;;;;;;;8.07;5.00;;;;;;;;;;4938517;29;20438;-75
2022/09/05 17:25:53;;;;;;;6.97;4.82;;;;;;;;;;4938392;29;20056;-75
2022/09/05 17:28:52;;;;;;;5.88;4.40;;;;;;;;;;4944561;29;20044;-74
2022/09/05 17:31:49;;;;;;;6.28;4.68;;;;;;;;;;4944558;29;20044;-74
2022/09/05 17:34:56;;;;;;;4.53;3.40;;;;;;;;;;4938039;29;20100;-74
2022/09/05 17:37:54;;;;;;;7.32;3.88;;;;;;;;;;4944217;29;20047;-75
2022/09/05 17:41:40;;;;;;;5.63;3.63;;;;;;;;;;4938044;29;20055;-75
2022/09/05 17:44:42;;;;;;;6.53;3.80;;;;;;;;;;4929248;29;20044;-75
2022/09/05 17:47:45;;;;;;;5.53;3.70;;;;;;;;;;4938192;29;20056;-75
2022/09/05 17:50:30;;;;;;;5.85;3.70;;;;;;;;;;4938394;29;20055;-76
2022/09/05 17:53:19;;;;;;;7.30;4.05;;;;;;;;;;4916835;29;20048;-77
2022/09/05 17:56:08;;;;;;;5.97;4.13;;;;;;;;;;4943859;29;20044;-77
2022/09/05 17:59:23;;;;;;;11.23;4.70;;;;;;;;;;4937683;29;20040;-76
2022/09/05 18:02:08;;;;;;;6.40;4.35;;;;;;;;;;4944544;29;20056;-76
2022/09/05 18:04:54;;;;;;;6.28;4.05;;;;;;;;;;4944529;29;20056;-77